Time;durP1;ratioP1;P1;durP2;ratioP2;P2;SDS_P1;SDS_P2;PMS_P1;PMS_P2;Temp;Humidity;BMP_temperature;BMP_pressure;BME280_temperature;BME280_humidity;BME280_pressure;Samples;Min_cycle;Max_cycle;Signal;HPM_P1;HPM_P2
2021/01/06 00:01:07;;;;;;;38.92;18.87;;;;;;;4.10;77.52;98500.37;119906;1151;104461;-70
2021/01/06 00:03:35;;;;;;;35.30;17.77;;;;;;;4.09;77.40;98499.55;120156;1151;104367;-70
2021/01/06 00:06:11;;;;;;;38.50;18.77;;;;;;;4.09;77.93;98506.58;119945;1151;104380;-70
2021/01/06 00:08:42;;;;;;;37.43;17.53;;;;;;;4.09;77.85;98511.84;119892;1151;105153;-69
2021/01/06 00:11:10;;;;;;;36.27;18.53;;;;;;;4.09;77.82;98511.84;119951;1151;105657;-69
2021/01/06 00:13:39;;;;;;;35.07;16.90;;;;;;;4.11;77.76;98512.61;120497;1151;104351;-70
2021/01/06 00:16:06;;;;;;;36.67;17.07;;;;;;;4.10;77.90;98517.03;119950;1151;104946;-70
2021/01/06 00:18:33;;;;;;;34.40;16.73;;;;;;;4.10;77.58;98529.33;119810;1151;104457;-70
2021/01/06 00:20:59;;;;;;;37.30;17.27;;;;;;;4.09;77.46;98530.27;120004;1151;104426;-70
2021/01/06 00:23:26;;;;;;;34.63;16.60;;;;;;;4.08;77.85;98539.09;119957;1151;104561;-70
2021/01/06 00:25:53;;;;;;;33.37;15.87;;;;;;;4.08;77.72;98539.09;119932;1151;104352;-71
2021/01/06 00:28:23;;;;;;;35.43;17.17;;;;;;;4.07;77.59;98540.89;119900;1151;104375;-69
2021/01/06 00:30:57;;;;;;;36.70;16.40;;;;;;;4.08;77.48;98553.12;120960;1151;104394;-68
2021/01/06 00:33:28;;;;;;;35.23;16.27;;;;;;;4.10;77.89;98545.98;120021;1151;104537;-66
2021/01/06 00:36:05;;;;;;;36.93;17.67;;;;;;;4.11;77.62;98545.05;119822;1151;104478;-70
2021/01/06 00:38:32;;;;;;;32.73;16.17;;;;;;;4.13;77.88;98547.59;121084;1151;104368;-72
2021/01/06 00:41:00;;;;;;;35.63;17.87;;;;;;;4.15;77.69;98545.73;119743;1151;104475;-70
2021/01/06 00:43:28;;;;;;;37.70;17.73;;;;;;;4.13;77.50;98553.72;119728;1151;104387;-69
2021/01/06 00:45:55;;;;;;;36.25;17.80;;;;;;;4.14;77.49;98555.42;119772;1151;104506;-70
2021/01/06 00:48:22;;;;;;;43.60;21.17;;;;;;;4.14;77.47;98559.82;119934;1151;104372;-70
2021/01/06 00:50:51;;;;;;;50.30;24.57;;;;;;;4.13;77.54;98561.62;119676;1151;104390;-72
2021/01/06 00:53:26;;;;;;;56.53;26.63;;;;;;;4.13;77.92;98563.38;120071;1151;104426;-72
2021/01/06 00:55:54;;;;;;;59.77;30.37;;;;;;;4.12;77.84;98564.31;121911;1151;102600;-71
2021/01/06 00:58:22;;;;;;;57.10;29.87;;;;;;;4.10;77.43;98567.05;120100;1151;104380;-71
2021/01/06 01:00:48;;;;;;;61.13;31.10;;;;;;;4.10;77.66;98561.78;119888;1151;104465;-69
2021/01/06 01:03:16;;;;;;;58.23;30.27;;;;;;;4.10;77.81;98566.18;120470;1151;104427;-69
2021/01/06 01:05:45;;;;;;;62.37;31.87;;;;;;;4.07;77.73;98569.84;119931;1151;104453;-70
2021/01/06 01:08:14;;;;;;;65.03;32.77;;;;;;;4.06;77.81;98570.77;119879;1151;104387;-70
2021/01/06 01:10:49;;;;;;;67.07;32.43;;;;;;;4.07;77.44;98577.73;120663;1151;103896;-70
2021/01/06 01:13:28;;;;;;;67.57;33.93;;;;;;;4.05;77.32;98574.34;119975;1151;104381;-70
2021/01/06 01:15:58;;;;;;;60.90;31.33;;;;;;;4.05;77.52;98562.98;121118;1151;104388;-70
2021/01/06 01:18:28;;;;;;;56.80;30.00;;;;;;;4.05;77.80;98569.07;119936;1152;104589;-70
2021/01/06 01:20:57;;;;;;;63.60;32.33;;;;;;;4.04;77.63;98569.17;119965;1151;104423;-70
2021/01/06 01:23:27;;;;;;;59.73;30.67;;;;;;;4.04;77.72;98572.64;120483;1151;104439;-70
2021/01/06 01:25:57;;;;;;;59.30;31.00;;;;;;;4.04;77.82;98569.17;119904;1151;104385;-69
2021/01/06 01:28:26;;;;;;;63.73;32.77;;;;;;;4.03;77.17;98573.56;119866;1151;104377;-70
2021/01/06 01:30:57;;;;;;;62.50;31.60;;;;;;;4.00;77.92;98577.23;119920;1151;104570;-70
2021/01/06 01:33:26;;;;;;;65.37;31.10;;;;;;;3.99;77.45;98572.89;120015;1151;104456;-69
2021/01/06 01:35:58;;;;;;;63.80;33.43;;;;;;;3.99;77.79;98577.30;120852;1151;104397;-70
2021/01/06 01:38:30;;;;;;;62.70;32.97;;;;;;;3.98;77.73;98575.59;119905;1151;104371;-70
2021/01/06 01:41:09;;;;;;;62.17;32.60;;;;;;;3.98;77.71;98572.96;119989;1151;104545;-70
2021/01/06 01:43:39;;;;;;;63.47;32.03;;;;;;;3.96;77.40;98575.69;119919;1151;104455;-69
2021/01/06 01:46:07;;;;;;;58.93;31.37;;;;;;;3.96;77.76;98573.06;119917;1151;104527;-70
2021/01/06 01:48:41;;;;;;;61.63;31.03;;;;;;;3.97;77.77;98574.76;119922;1151;104396;-70
2021/01/06 01:51:17;;;;;;;58.97;31.80;;;;;;;3.94;77.54;98571.42;121158;1151;103153;-70
2021/01/06 01:53:51;;;;;;;62.53;32.87;;;;;;;3.93;77.64;98567.95;119974;1151;104528;-72
2021/01/06 01:56:23;;;;;;;56.07;30.80;;;;;;;3.93;77.35;98569.72;119972;1151;104399;-69
2021/01/06 01:58:53;;;;;;;58.03;29.43;;;;;;;3.91;77.33;98569.81;119885;1151;104380;-70
2021/01/06 02:01:21;;;;;;;61.35;30.75;;;;;;;3.92;77.73;98573.28;120033;1151;104454;-71
2021/01/06 02:04:00;;;;;;;54.55;30.15;;;;;;;3.90;77.73;98565.48;119800;1151;104529;-69
2021/01/06 02:06:39;;;;;;;61.30;31.60;;;;;;;3.88;77.72;98562.92;119916;1151;104449;-69
2021/01/06 02:09:14;;;;;;;56.37;31.30;;;;;;;3.86;77.50;98567.45;120214;1151;104450;-69
2021/01/06 02:11:47;;;;;;;60.37;32.03;;;;;;;3.87;77.45;98565.65;119854;1151;104921;-70
2021/01/06 02:14:21;;;;;;;55.75;30.75;;;;;;;3.84;77.40;98564.05;119837;1151;104358;-69
2021/01/06 02:17:04;;;;;;;54.13;30.10;;;;;;;3.86;77.54;98571.84;119868;1151;104471;-70
2021/01/06 02:19:38;;;;;;;55.55;30.80;;;;;;;3.84;77.44;98569.30;119865;1153;104393;-69
2021/01/06 02:22:06;;;;;;;;;;;;;;;3.81;77.11;98574.73;120013;1151;104450;-70
2021/01/06 02:24:35;;;;;;;58.77;29.97;;;;;;;3.78;77.64;98577.52;119985;1151;104348;-69
2021/01/06 02:27:03;;;;;;;55.63;29.37;;;;;;;3.76;77.25;98575.88;119933;1151;104602;-69
2021/01/06 02:29:33;;;;;;;55.73;31.63;;;;;;;3.76;77.43;98578.52;119987;1149;104324;-70
2021/01/06 02:32:01;;;;;;;55.43;29.83;;;;;;;3.75;77.60;98571.55;119984;1151;104455;-68
2021/01/06 02:34:29;;;;;;;59.47;31.40;;;;;;;3.77;77.22;98567.06;120088;1151;104433;-69
2021/01/06 02:36:56;;;;;;;54.90;27.87;;;;;;;3.74;77.23;98565.45;119828;1151;104471;-70
2021/01/06 02:39:26;;;;;;;58.10;30.37;;;;;;;3.73;77.25;98567.22;120723;1151;104353;-69
2021/01/06 02:41:55;;;;;;;58.45;30.55;;;;;;;3.71;77.01;98568.25;119907;1151;104380;-69
2021/01/06 02:44:23;;;;;;;57.27;29.50;;;;;;;3.70;77.05;98569.17;120750;1151;104348;-69
2021/01/06 02:46:52;;;;;;;60.37;31.80;;;;;;;3.68;77.59;98565.77;119783;1151;104860;-69
2021/01/06 02:49:22;;;;;;;54.50;30.10;;;;;;;3.70;77.24;98558.66;121265;1151;104302;-69
2021/01/06 02:52:17;;;;;;;55.73;31.17;;;;;;;3.72;77.29;98564.69;119907;1151;104614;-68
2021/01/06 02:54:47;;;;;;;52.57;27.90;;;;;;;3.72;77.27;98551.53;119864;1151;104361;-70
2021/01/06 02:57:17;;;;;;;55.60;29.73;;;;;;;3.72;77.33;98565.52;119881;1153;104383;-70
2021/01/06 02:59:48;;;;;;;52.83;28.43;;;;;;;3.72;77.57;98559.42;119955;1151;104448;-69
2021/01/06 03:02:21;;;;;;;53.23;28.60;;;;;;;3.71;77.69;98562.98;120627;1151;104441;-69
2021/01/06 03:05:02;;;;;;;56.53;28.50;;;;;;;3.71;77.18;98562.98;120069;1151;104508;-69
2021/01/06 03:07:33;;;;;;;55.03;28.90;;;;;;;3.71;77.54;98570.88;119912;1151;104475;-71
2021/01/06 03:10:00;;;;;;;52.05;28.45;;;;;;;3.70;77.26;98564.75;119946;1151;104438;-72
2021/01/06 03:12:33;;;;;;;50.50;27.23;;;;;;;3.69;77.67;98567.47;119931;1152;104527;-70
2021/01/06 03:15:02;;;;;;;51.98;27.20;;;;;;;3.69;77.52;98570.11;119930;1151;104412;-70
2021/01/06 03:17:32;;;;;;;55.30;29.05;;;;;;;3.69;77.27;98575.36;119938;1153;104495;-70
2021/01/06 03:20:31;;;;;;;55.57;28.47;;;;;;;3.68;77.64;98574.50;120596;1151;103202;-70
2021/01/06 03:23:08;;;;;;;54.07;28.43;;;;;;;3.68;77.49;98576.30;119952;1154;104451;-70
2021/01/06 03:25:40;;;;;;;52.57;29.87;;;;;;;3.69;77.34;98572.73;119898;1153;104428;-69
2021/01/06 03:28:10;;;;;;;57.00;29.80;;;;;;;3.69;77.06;98581.46;119989;1151;104492;-70
2021/01/06 03:30:39;;;;;;;60.43;31.20;;;;;;;3.69;77.28;98578.83;120486;1151;104455;-70
2021/01/06 03:33:17;;;;;;;57.43;30.67;;;;;;;3.70;77.02;98571.80;120329;1151;104377;-69
2021/01/06 03:35:57;;;;;;;59.10;30.53;;;;;;;3.70;77.32;98569.17;120051;1151;104461;-69
2021/01/06 03:38:31;;;;;;;58.13;29.67;;;;;;;3.71;77.33;98576.97;119971;1151;104375;-69
2021/01/06 03:41:02;;;;;;;61.55;31.85;;;;;;;3.73;77.15;98571.64;120077;1151;104451;-70
2021/01/06 03:43:31;;;;;;;61.40;31.73;;;;;;;3.72;77.33;98569.95;119925;1151;104374;-69
2021/01/06 03:46:06;;;;;;;65.50;31.70;;;;;;;3.73;77.31;98572.48;120715;1151;102428;-69
2021/01/06 03:49:20;;;;;;;60.75;32.55;;;;;;;3.72;77.33;98577.84;120163;1152;104368;-71
2021/01/06 03:51:59;;;;;;;57.17;30.67;;;;;;;3.73;77.52;98575.11;119985;1151;104387;-69
2021/01/06 03:54:32;;;;;;;57.85;31.40;;;;;;;3.76;77.33;98573.25;119949;1151;104404;-68
2021/01/06 03:57:04;;;;;;;52.85;27.70;;;;;;;3.73;77.71;98569.85;119859;1151;104462;-71
2021/01/06 03:59:35;;;;;;;53.40;28.33;;;;;;;3.73;77.38;98569.02;120644;1151;104407;-68
2021/01/06 04:02:14;;;;;;;55.60;29.37;;;;;;;3.72;77.35;98562.05;120315;1150;104972;-69
2021/01/06 04:04:53;;;;;;;56.33;28.63;;;;;;;3.69;77.29;98564.84;119853;1154;104545;-67
2021/01/06 04:07:33;;;;;;;56.37;28.67;;;;;;;3.68;77.72;98563.14;119907;1151;104402;-68
2021/01/06 04:10:05;;;;;;;51.80;26.53;;;;;;;3.70;77.52;98567.37;119914;1151;104547;-67
2021/01/06 04:12:32;;;;;;;51.15;28.30;;;;;;;3.69;76.86;98570.11;120021;1151;104511;-67
2021/01/06 04:15:00;;;;;;;55.13;29.90;;;;;;;3.69;77.19;98563.05;119862;1153;104396;-68
2021/01/06 04:17:35;;;;;;;54.33;29.67;;;;;;;3.71;77.63;98565.61;119962;1153;104452;-68
2021/01/06 04:20:08;;;;;;;52.30;27.97;;;;;;;3.70;77.65;98575.27;119953;1153;104401;-70
2021/01/06 04:22:46;;;;;;;51.50;28.17;;;;;;;3.70;77.52;98563.91;119796;1152;104614;-68
2021/01/06 04:25:25;;;;;;;53.33;29.33;;;;;;;3.68;77.87;98569.23;119813;1152;104468;-69
2021/01/06 04:28:06;;;;;;;54.80;29.03;;;;;;;3.70;77.21;98577.06;120185;1151;104428;-69
2021/01/06 04:30:51;;;;;;;55.20;28.00;;;;;;;3.68;77.62;98566.61;119862;1153;104374;-70
2021/01/06 04:33:21;;;;;;;53.80;29.50;;;;;;;3.68;77.26;98566.61;119851;1153;104452;-70
2021/01/06 04:35:50;;;;;;;53.30;30.00;;;;;;;3.69;77.24;98562.22;119865;1153;104473;-70
2021/01/06 04:38:24;;;;;;;52.77;29.00;;;;;;;3.70;77.45;98570.01;119854;1152;104461;-70
2021/01/06 04:40:59;;;;;;;54.53;28.92;;;;;;;3.71;77.57;98565.61;120746;1151;104377;-70
2021/01/06 04:43:44;;;;;;;52.73;28.63;;;;;;;3.69;77.18;98565.67;119801;1153;104555;-69
2021/01/06 04:46:49;;;;;;;50.50;27.50;;;;;;;3.69;77.72;98570.11;121213;1151;104381;-67
2021/01/06 04:49:19;;;;;;;;;;;;;;;3.69;77.50;98564.84;120001;1151;104378;-68
2021/01/06 04:52:14;;;;;;;49.27;27.07;;;;;;;3.68;77.32;98560.52;120052;1151;104380;-69
2021/01/06 04:55:20;;;;;;;53.27;26.83;;;;;;;3.67;77.46;98562.27;119839;1154;104461;-68
2021/01/06 04:58:20;;;;;;;53.60;29.00;;;;;;;3.64;76.93;98553.71;119872;1154;104445;-69
2021/01/06 05:01:08;;;;;;;53.67;27.23;;;;;;;3.56;77.50;98557.59;119959;1153;104357;-68
2021/01/06 05:03:52;;;;;;;53.37;27.67;;;;;;;3.55;77.79;98555.88;119823;1153;104556;-69
2021/01/06 05:06:29;;;;;;;50.93;27.70;;;;;;;3.56;77.22;98559.38;119806;1151;104449;-68
2021/01/06 05:09:01;;;;;;;53.97;28.03;;;;;;;3.50;77.19;98559.70;119843;1151;104440;-69
2021/01/06 05:11:40;;;;;;;52.33;26.47;;;;;;;3.50;77.71;98565.79;120180;1151;104382;-69
2021/01/06 05:14:19;;;;;;;50.47;25.03;;;;;;;3.45;77.05;98565.20;119878;1151;104393;-68
2021/01/06 05:16:50;;;;;;;49.27;25.77;;;;;;;3.32;77.33;98569.38;120677;1153;104551;-69
2021/01/06 05:19:22;;;;;;;48.10;26.03;;;;;;;3.20;77.51;98571.70;120109;1151;104541;-68
2021/01/06 05:21:51;;;;;;;48.30;25.17;;;;;;;3.10;77.44;98563.44;119896;1153;104426;-70
2021/01/06 05:24:46;;;;;;;46.17;23.37;;;;;;;3.09;77.60;98574.88;119822;1151;104445;-67
2021/01/06 05:27:12;;;;;;;46.10;22.93;;;;;;;3.09;77.39;98566.98;119952;1151;104445;-69
2021/01/06 05:29:59;;;;;;;40.05;20.08;;;;;;;3.11;77.18;98570.39;119962;1151;104492;-69
2021/01/06 05:32:37;;;;;;;46.05;22.15;;;;;;;3.13;77.66;98573.80;120347;1151;104364;-68
2021/01/06 05:35:17;;;;;;;44.77;22.00;;;;;;;3.17;77.82;98581.53;121124;1151;104455;-69
2021/01/06 05:37:51;;;;;;;40.23;21.13;;;;;;;3.18;77.63;98580.59;119979;1151;104470;-69
2021/01/06 05:40:19;;;;;;;40.50;19.77;;;;;;;3.22;77.95;98579.52;120474;1151;104515;-68
2021/01/06 05:42:54;;;;;;;34.83;16.60;;;;;;;3.27;77.83;98574.85;120109;1153;105061;-70
2021/01/06 05:45:26;;;;;;;41.05;20.65;;;;;;;3.30;77.75;98579.12;119907;1152;104473;-70
2021/01/06 05:47:59;;;;;;;35.65;18.75;;;;;;;3.34;77.92;98578.88;119940;1151;104455;-71
2021/01/06 05:50:37;;;;;;;35.60;17.90;;;;;;;3.37;77.79;98578.72;119881;1151;104436;-70
2021/01/06 05:53:51;;;;;;;39.23;19.47;;;;;;;3.37;77.27;98580.52;119958;1151;104451;-71
2021/01/06 05:56:43;;;;;;;38.20;19.20;;;;;;;3.35;77.76;98575.32;119726;1151;104691;-70
2021/01/06 05:59:23;;;;;;;40.17;18.23;;;;;;;3.38;77.88;98580.42;119937;1151;104450;-70
2021/01/06 06:02:19;;;;;;;34.90;16.50;;;;;;;3.42;77.71;98589.86;119977;1151;104385;-70
2021/01/06 06:04:52;;;;;;;33.87;16.73;;;;;;;3.45;77.52;98585.38;119885;1151;104422;-70
2021/01/06 06:07:37;;;;;;;38.60;18.50;;;;;;;3.46;77.48;98585.31;119957;1151;104481;-69
2021/01/06 06:10:49;;;;;;;37.10;17.43;;;;;;;3.48;77.44;98588.68;119949;1151;105046;-69
2021/01/06 06:13:34;;;;;;;35.97;18.10;;;;;;;3.52;77.16;98587.59;119925;1151;104453;-69
2021/01/06 06:16:04;;;;;;;34.90;17.57;;;;;;;3.55;77.60;98599.76;120316;1151;104475;-70
2021/01/06 06:19:19;;;;;;;38.43;18.43;;;;;;;3.55;77.36;98599.76;119951;1151;104441;-70
2021/01/06 06:22:00;;;;;;;33.50;16.17;;;;;;;3.55;77.81;98594.50;119938;1153;104368;-69
2021/01/06 06:24:45;;;;;;;39.33;16.43;;;;;;;3.53;77.81;98602.45;120346;1151;104382;-69
2021/01/06 06:27:31;;;;;;;37.87;19.43;;;;;;;3.49;77.61;98610.59;119748;1151;104455;-70
2021/01/06 06:30:10;;;;;;;33.93;17.50;;;;;;;3.49;77.21;98610.59;119780;1151;104375;-70
2021/01/06 06:32:40;;;;;;;37.47;16.50;;;;;;;3.48;78.06;98609.72;120458;1151;104493;-69
2021/01/06 06:35:08;;;;;;;34.43;17.03;;;;;;;3.49;78.18;98608.80;120194;1150;104351;-69
2021/01/06 06:38:07;;;;;;;36.97;17.47;;;;;;;3.54;77.27;98606.78;119774;1151;104457;-69
2021/01/06 06:41:00;;;;;;;30.13;14.20;;;;;;;3.57;77.44;98611.05;119858;1151;104430;-71
2021/01/06 06:43:38;;;;;;;30.40;15.13;;;;;;;3.58;77.76;98618.84;120405;1151;104356;-70
2021/01/06 06:46:26;;;;;;;32.97;16.43;;;;;;;3.61;77.53;98614.36;119681;1151;104478;-69
2021/01/06 06:49:11;;;;;;;35.63;15.80;;;;;;;3.61;77.21;98619.63;119822;1151;104462;-69
2021/01/06 06:52:01;;;;;;;32.80;16.60;;;;;;;3.62;77.50;98618.69;119823;1151;104468;-70
2021/01/06 06:54:34;;;;;;;34.77;16.77;;;;;;;3.65;77.15;98616.77;119881;1151;104387;-70
2021/01/06 06:57:13;;;;;;;34.80;15.65;;;;;;;3.63;77.75;98613.37;119791;1151;104529;-70
2021/01/06 07:00:01;;;;;;;35.00;17.03;;;;;;;3.63;77.80;98615.13;119763;1150;104457;-69
2021/01/06 07:02:29;;;;;;;34.17;17.00;;;;;;;3.66;77.39;98621.11;119756;1151;104357;-69
2021/01/06 07:05:03;;;;;;;35.45;16.15;;;;;;;3.66;77.35;98622.88;119713;1152;104492;-70
2021/01/06 07:07:34;;;;;;;34.77;16.20;;;;;;;3.68;77.72;98624.47;121836;1152;102788;-70
2021/01/06 07:10:07;;;;;;;33.77;15.60;;;;;;;3.67;77.25;98621.94;121580;1151;102151;-71
2021/01/06 07:12:40;;;;;;;31.25;15.08;;;;;;;3.67;77.60;98627.20;119960;1151;104459;-68
2021/01/06 07:15:21;;;;;;;32.40;15.23;;;;;;;3.69;77.58;98627.97;119965;1151;104367;-71
2021/01/06 07:17:48;;;;;;;31.67;14.53;;;;;;;3.70;77.43;98634.94;119926;1151;104449;-69
2021/01/06 07:20:38;;;;;;;26.97;13.83;;;;;;;3.69;77.58;98636.70;119896;1151;104490;-69
2021/01/06 07:23:25;;;;;;;28.17;13.07;;;;;;;3.70;77.32;98641.03;119968;1151;104359;-68
2021/01/06 07:26:33;;;;;;;29.23;13.33;;;;;;;3.71;77.29;98642.73;119921;1151;104429;-68
2021/01/06 07:29:06;;;;;;;29.57;12.67;;;;;;;3.72;77.40;98643.60;119966;1151;104414;-69
2021/01/06 07:32:04;;;;;;;31.13;13.37;;;;;;;3.76;77.66;98642.52;119945;1151;104357;-70
2021/01/06 07:34:59;;;;;;;26.53;11.73;;;;;;;3.80;77.84;98648.45;119999;1151;104351;-68
2021/01/06 07:38:11;;;;;;;30.13;13.60;;;;;;;3.82;77.43;98647.47;119953;1151;104441;-68
2021/01/06 07:40:44;;;;;;;27.70;12.53;;;;;;;3.84;77.39;98653.50;119973;1151;104400;-68
2021/01/06 07:43:38;;;;;;;25.37;11.48;;;;;;;3.85;77.89;98652.57;119969;1151;104382;-70
2021/01/06 07:46:26;;;;;;;30.90;12.60;;;;;;;3.85;77.69;98659.59;119925;1151;104387;-69
2021/01/06 07:49:12;;;;;;;26.10;11.53;;;;;;;3.87;77.08;98652.48;119954;1150;104399;-70
2021/01/06 07:51:57;;;;;;;23.23;10.10;;;;;;;3.91;77.24;98647.89;119968;1151;104428;-69
2021/01/06 07:54:39;;;;;;;23.50;9.87;;;;;;;3.88;77.07;98651.55;119915;1151;104432;-69
2021/01/06 07:57:12;;;;;;;23.27;8.73;;;;;;;3.87;76.87;98645.42;119900;1151;104697;-67
2021/01/06 07:59:45;;;;;;;25.43;9.33;;;;;;;3.87;77.40;98637.52;119947;1151;104585;-67
2021/01/06 08:02:19;;;;;;;22.80;9.83;;;;;;;3.92;77.30;98645.20;120046;1151;104378;-68
2021/01/06 08:05:11;;;;;;;22.83;8.97;;;;;;;3.95;76.96;98654.70;119915;1151;104358;-67
2021/01/06 08:07:40;;;;;;;23.47;9.67;;;;;;;3.96;77.26;98645.88;119892;1151;104503;-68
2021/01/06 08:10:38;;;;;;;21.27;8.70;;;;;;;4.00;77.16;98644.78;120094;1151;104365;-70
2021/01/06 08:13:20;;;;;;;19.97;8.20;;;;;;;4.01;77.10;98649.12;120068;1149;104544;-66
2021/01/06 08:15:53;;;;;;;23.10;9.35;;;;;;;4.02;77.38;98648.19;119960;1151;104358;-66
2021/01/06 08:18:50;;;;;;;23.27;10.23;;;;;;;4.05;76.95;98650.66;120025;1151;104457;-66
2021/01/06 08:21:41;;;;;;;25.77;10.03;;;;;;;4.11;77.02;98652.98;119969;1151;104420;-68
2021/01/06 08:24:44;;;;;;;23.00;9.15;;;;;;;4.13;76.81;98653.75;119899;1151;104458;-68
2021/01/06 08:27:26;;;;;;;21.48;8.40;;;;;;;4.10;76.98;98648.64;119947;1151;104451;-69
2021/01/06 08:30:27;;;;;;;23.47;8.53;;;;;;;4.10;76.76;98648.64;120053;1151;104362;-67
2021/01/06 08:33:11;;;;;;;23.17;9.70;;;;;;;4.15;77.18;98645.75;119891;1151;104415;-71
2021/01/06 08:35:41;;;;;;;22.93;9.97;;;;;;;4.18;77.03;98650.86;119915;1149;104355;-71
2021/01/06 08:38:33;;;;;;;23.17;10.10;;;;;;;4.22;76.86;98644.50;119866;1150;104510;-69
2021/01/06 08:41:23;;;;;;;24.40;9.13;;;;;;;4.24;77.22;98652.33;119989;1151;104385;-67
2021/01/06 08:43:51;;;;;;;23.40;9.27;;;;;;;4.21;76.66;98647.23;120009;1151;104354;-71
2021/01/06 08:46:20;;;;;;;21.12;8.30;;;;;;;4.21;76.73;98652.49;119961;1151;104851;-69
2021/01/06 08:48:47;;;;;;;22.60;8.67;;;;;;;4.25;76.86;98651.41;119930;1151;104426;-70
2021/01/06 08:51:31;;;;;;;20.53;8.53;;;;;;;4.28;76.79;98651.23;120081;1151;104402;-71
2021/01/06 08:54:37;;;;;;;23.17;8.87;;;;;;;4.36;76.99;98649.02;119925;1151;104526;-68
2021/01/06 08:57:23;;;;;;;24.33;9.53;;;;;;;4.40;76.65;98647.09;119595;1151;104384;-69
2021/01/06 08:59:50;;;;;;;22.00;8.50;;;;;;;4.45;76.76;98645.06;119936;1151;104507;-69
2021/01/06 09:02:35;;;;;;;21.37;9.43;;;;;;;4.51;76.90;98646.50;119917;1151;104494;-70
2021/01/06 09:05:05;;;;;;;19.90;8.17;;;;;;;4.66;76.67;98637.77;119938;1151;104428;-70
2021/01/06 09:07:32;;;;;;;22.00;8.93;;;;;;;4.74;76.46;98635.53;119878;1151;104418;-70
2021/01/06 09:10:17;;;;;;;25.37;10.00;;;;;;;4.83;76.74;98628.92;119891;1151;104361;-70
2021/01/06 09:13:10;;;;;;;24.07;9.27;;;;;;;4.96;76.79;98641.38;119942;1153;104485;-70
2021/01/06 09:15:49;;;;;;;22.57;9.03;;;;;;;5.18;76.83;98641.88;119887;1153;104471;-69
2021/01/06 09:18:40;;;;;;;23.23;8.97;;;;;;;5.65;76.75;98623.36;119911;1153;104357;-70
2021/01/06 09:21:29;;;;;;;20.30;7.50;;;;;;;6.19;76.92;98620.13;119948;1153;104476;-70
2021/01/06 09:24:17;;;;;;;19.97;7.57;;;;;;;6.70;75.94;98613.45;119898;1152;104445;-71
2021/01/06 09:26:53;;;;;;;18.00;7.20;;;;;;;6.84;76.13;98609.91;119977;1151;104348;-69
2021/01/06 09:29:23;;;;;;;20.67;7.40;;;;;;;7.16;75.57;98601.66;119995;1151;104825;-70
2021/01/06 09:31:54;;;;;;;19.63;7.57;;;;;;;7.40;75.79;98606.25;119952;1151;104403;-68
2021/01/06 09:34:47;;;;;;;19.93;7.73;;;;;;;7.67;76.01;98600.06;119987;1151;104574;-68
2021/01/06 09:37:25;;;;;;;19.07;7.63;;;;;;;7.78;76.53;98597.51;119872;1151;104466;-69
2021/01/06 09:39:58;;;;;;;21.33;8.60;;;;;;;7.87;76.08;98598.70;119923;1151;104521;-70
2021/01/06 09:42:30;;;;;;;19.80;8.38;;;;;;;7.89;76.41;98602.09;120033;1151;104495;-73
2021/01/06 09:44:57;;;;;;;19.95;8.40;;;;;;;7.87;75.95;98603.99;120163;1151;104382;-71
2021/01/06 09:47:38;;;;;;;18.70;7.00;;;;;;;7.77;75.72;98605.57;120090;1151;104461;-74
2021/01/06 09:50:38;;;;;;;19.67;8.03;;;;;;;7.44;75.98;98607.75;120030;1151;104528;-73
2021/01/06 09:53:08;;;;;;;19.23;7.50;;;;;;;7.24;76.18;98602.02;121875;1151;102180;-69
2021/01/06 09:55:42;;;;;;;21.50;7.83;;;;;;;7.22;76.27;98600.40;122016;1151;102412;-70
2021/01/06 09:58:32;;;;;;;21.87;8.57;;;;;;;7.12;76.19;98598.39;121995;1151;102436;-73
2021/01/06 10:01:02;;;;;;;21.60;8.10;;;;;;;7.07;76.21;98599.63;122109;1151;103549;-70
2021/01/06 10:03:35;;;;;;;23.33;9.63;;;;;;;6.95;75.66;98598.64;121037;1152;102519;-71
2021/01/06 10:06:31;;;;;;;21.10;8.27;;;;;;;6.82;75.41;98596.78;119955;1151;104503;-72
2021/01/06 10:09:24;;;;;;;20.87;8.10;;;;;;;6.72;76.01;98592.19;120000;1151;104375;-70
2021/01/06 10:11:54;;;;;;;20.90;8.70;;;;;;;6.64;75.78;98587.41;119903;1151;104429;-72
2021/01/06 10:15:00;;;;;;;20.90;8.60;;;;;;;6.61;76.09;98582.32;119962;1151;104535;-70
2021/01/06 10:17:36;;;;;;;20.23;8.27;;;;;;;6.50;76.05;98586.49;119963;1151;104393;-70
2021/01/06 10:20:20;;;;;;;20.40;8.15;;;;;;;6.33;75.69;98584.92;120042;1151;104372;-70
2021/01/06 10:23:09;;;;;;;19.82;7.80;;;;;;;6.29;76.18;98579.94;119954;1151;104530;-71
2021/01/06 10:26:00;;;;;;;18.00;7.20;;;;;;;6.30;76.08;98577.19;120023;1151;104423;-70
2021/01/06 10:28:44;;;;;;;22.70;8.23;;;;;;;6.33;75.49;98574.35;120040;1151;104452;-71
2021/01/06 10:31:14;;;;;;;22.52;8.95;;;;;;;6.35;75.59;98569.83;119948;1151;104380;-70
2021/01/06 10:34:20;;;;;;;23.80;9.50;;;;;;;6.37;75.95;98567.94;119866;1151;104446;-71
2021/01/06 10:37:05;;;;;;;23.60;9.10;;;;;;;6.38;75.32;98556.42;120054;1151;104320;-69
2021/01/06 10:39:46;;;;;;;24.03;9.23;;;;;;;6.40;75.40;98558.95;119956;1152;104383;-69
2021/01/06 10:42:16;;;;;;;20.77;8.20;;;;;;;6.39;75.27;98550.20;119990;1151;104509;-71
2021/01/06 10:44:54;;;;;;;20.37;7.90;;;;;;;6.34;75.10;98549.64;120000;1151;104448;-70
2021/01/06 10:47:43;;;;;;;21.80;9.13;;;;;;;6.22;75.47;98553.91;120020;1148;104926;-71
2021/01/06 10:50:22;;;;;;;22.13;9.43;;;;;;;6.09;75.29;98534.49;120003;1151;104911;-70
2021/01/06 10:53:25;;;;;;;21.00;8.87;;;;;;;6.05;75.39;98535.63;120028;1151;104359;-69
2021/01/06 10:56:11;;;;;;;23.73;8.43;;;;;;;6.04;75.65;98539.20;119980;1151;104525;-70
2021/01/06 10:58:44;;;;;;;19.67;7.80;;;;;;;6.00;75.57;98535.03;119936;1151;104358;-71
2021/01/06 11:01:17;;;;;;;21.43;7.73;;;;;;;5.90;75.05;98537.40;119984;1151;104835;-70
2021/01/06 11:04:21;;;;;;;21.43;8.77;;;;;;;5.81;74.96;98537.02;119872;1151;104439;-70
2021/01/06 11:07:24;;;;;;;23.53;9.07;;;;;;;5.76;74.80;98527.70;120111;1148;104381;-71
2021/01/06 11:10:14;;;;;;;23.85;9.65;;;;;;;5.74;75.32;98506.67;119847;1151;105811;-72
2021/01/06 11:13:00;;;;;;;22.03;9.33;;;;;;;5.83;75.54;98505.27;119431;1151;104432;-69
2021/01/06 11:15:47;;;;;;;21.00;9.17;;;;;;;5.84;75.27;98498.19;119938;1151;104376;-70
2021/01/06 11:18:32;;;;;;;22.77;8.87;;;;;;;5.90;75.56;98485.47;119915;1151;104384;-69
2021/01/06 11:21:14;;;;;;;22.10;8.43;;;;;;;5.88;75.14;98505.84;119893;1151;104604;-69
2021/01/06 11:23:44;;;;;;;23.23;9.30;;;;;;;5.84;74.63;98503.47;119984;1150;104512;-69
2021/01/06 11:26:31;;;;;;;22.37;8.83;;;;;;;5.79;75.03;98501.95;120017;1151;104447;-69
2021/01/06 11:29:12;;;;;;;19.03;7.33;;;;;;;5.72;74.59;98489.25;119914;1151;104405;-71
2021/01/06 11:32:22;;;;;;;23.50;8.35;;;;;;;5.65;74.76;98491.42;119877;1151;104448;-69
2021/01/06 11:35:09;;;;;;;22.97;8.83;;;;;;;5.69;75.28;98489.44;119922;1151;104468;-69
2021/01/06 11:37:40;;;;;;;26.63;10.80;;;;;;;5.75;75.01;98483.78;119880;1151;104508;-67
2021/01/06 11:40:29;;;;;;;24.83;8.80;;;;;;;5.75;74.76;98481.97;119807;1151;104380;-70
2021/01/06 11:43:22;;;;;;;21.93;9.67;;;;;;;5.68;75.04;98490.38;119859;1151;104362;-68
2021/01/06 11:45:51;;;;;;;23.67;9.78;;;;;;;5.70;74.71;98478.80;119902;1151;104528;-68
2021/01/06 11:48:37;;;;;;;26.07;8.90;;;;;;;5.77;75.08;98471.34;120112;1151;104452;-69
2021/01/06 11:51:19;;;;;;;22.13;9.00;;;;;;;5.81;74.85;98465.76;119819;1151;104548;-68
2021/01/06 11:54:00;;;;;;;22.10;8.63;;;;;;;5.86;74.94;98465.48;119853;1151;104837;-68
2021/01/06 11:56:42;;;;;;;21.20;9.83;;;;;;;5.85;74.61;98469.07;120019;1151;104650;-69
2021/01/06 11:59:28;;;;;;;21.70;8.70;;;;;;;5.79;74.23;98465.01;119854;1151;104422;-69
2021/01/06 12:02:16;;;;;;;23.63;9.37;;;;;;;5.80;74.48;98464.06;119888;1151;104422;-68
2021/01/06 12:05:20;;;;;;;24.83;9.77;;;;;;;5.83;74.69;98457.77;119955;1151;104512;-68